KABR/ABR METAR and TAF weather

Enter ICAO airport designator
Station Type Date Time Source
KABR METAR 2020/07/09 08:53 UTC NOAA

KABR 090853Z AUTO 26006KT 10SM CLR 21/17 A2983 RMK AO2 SLP090 60000 T02060172 53009


Station Type Date Time Source
KABR Decoded METAR 2020/07/09 08:53 UTC NOAA

ABERDEEN REGIONAL AIRPORT, SD, United States (KABR) 45-27N 098-25W 400M
Jul 09, 2020 - 04:53 AM EDT / 2020.07.09 0853 UTC
Wind: from the W (260 degrees) at 7 MPH (6 KT):0
Visibility: 10 mile(s):0
Sky conditions: clear
Temperature: 69.1 F (20.6 C)
Dew Point: 63.0 F (17.2 C)
Relative Humidity: 80%
Pressure (altimeter): 29.83 in. Hg (1010 hPa)
Pressure tendency: 0.03 inches (0.9 hPa) higher than three hours ago
ob: KABR 090853Z AUTO 26006KT 10SM CLR 21/17 A2983 RMK AO2 SLP090 60000 T02060172 53009
cycle: 9

Station Type Date Time Source
KABR TAF 2020/07/09 06:42 UTC NOAA

TAF KABR 090540Z 0906/1006 18011KT P6SM SCT080 BKN200
FM091500 30009KT P6SM SKC

Example: see airport list